DXXX/LFW METAR and TAF weather

Enter ICAO airport designator
Station Type Date Time Source
DXXX METAR 2019/05/20 10:00 UTC NOAA

DXXX 201000Z 22006KT 4500 TSRA SCT010 SCT020CB 24/24 Q1015 RETSRA NOSIG


Station Type Date Time Source
DXXX Decoded METAR 2019/05/20 10:00 UTC NOAA

Lome, Togo (DXXX) 06-10N 001-15E 25M
May 20, 2019 - 06:00 AM EDT / 2019.05.20 1000 UTC
Wind: from the SW (220 degrees) at 7 MPH (6 KT):0
Visibility: 2 mile(s):0
Sky conditions: partly cloudy
Weather: rain with thunder; Cumulonimbus clouds observed
Temperature: 75 F (24 C)
Dew Point: 75 F (24 C)
Relative Humidity: 100%
Pressure (altimeter): 29.97 in. Hg (1015 hPa)
ob: DXXX 201000Z 22006KT 4500 TSRA SCT010 SCT020CB 24/24 Q1015 RETSRA NOSIG
cycle: 10

Station Type Date Time Source
DXXX TAF 2019/05/20 06:21 UTC NOAA

TAF TAF DXXX 200500Z 2006/2112 26005KT 8000 TS BKN012 FEW020CB
TEMPO 2006/2012 4000 TSRA
BECMG 2012/2014 20010KT NSW SCT012
BECMG 2023/2101 26005KT

Example: see airport list